sensor_id;sensor_type;location;lat;lon;timestamp;temperature;humidity
1351;DHT22;669;50.206;9.998;2023-10-08T00:00:47;15.80;6.60
1351;DHT22;669;50.206;9.998;2023-10-08T00:03:18;15.70;6.70
1351;DHT22;669;50.206;9.998;2023-10-08T00:05:48;15.70;6.80
1351;DHT22;669;50.206;9.998;2023-10-08T00:08:17;15.70;6.90
1351;DHT22;669;50.206;9.998;2023-10-08T00:10:45;15.60;7.10
1351;DHT22;669;50.206;9.998;2023-10-08T00:13:14;15.60;7.30
1351;DHT22;669;50.206;9.998;2023-10-08T00:15:43;15.60;7.50
1351;DHT22;669;50.206;9.998;2023-10-08T00:18:22;15.50;7.50
1351;DHT22;669;50.206;9.998;2023-10-08T00:20:50;15.50;7.80
1351;DHT22;669;50.206;9.998;2023-10-08T00:23:25;15.50;7.90
1351;DHT22;669;50.206;9.998;2023-10-08T00:25:53;15.50;8.20
1351;DHT22;669;50.206;9.998;2023-10-08T00:28:22;15.40;8.30
1351;DHT22;669;50.206;9.998;2023-10-08T00:30:51;15.50;8.50
1351;DHT22;669;50.206;9.998;2023-10-08T00:33:22;15.50;8.80
1351;DHT22;669;50.206;9.998;2023-10-08T00:35:51;15.40;8.80
1351;DHT22;669;50.206;9.998;2023-10-08T00:38:19;15.40;8.80
1351;DHT22;669;50.206;9.998;2023-10-08T00:40:48;15.40;9.00
1351;DHT22;669;50.206;9.998;2023-10-08T00:43:31;15.40;9.10
1351;DHT22;669;50.206;9.998;2023-10-08T00:46:00;15.50;9.20
1351;DHT22;669;50.206;9.998;2023-10-08T00:48:30;15.50;9.30
1351;DHT22;669;50.206;9.998;2023-10-08T00:51:03;15.40;9.40
1351;DHT22;669;50.206;9.998;2023-10-08T00:53:44;15.40;9.50
1351;DHT22;669;50.206;9.998;2023-10-08T00:56:13;15.40;9.60
1351;DHT22;669;50.206;9.998;2023-10-08T00:58:46;15.40;9.70
1351;DHT22;669;50.206;9.998;2023-10-08T01:01:18;15.40;9.70
1351;DHT22;669;50.206;9.998;2023-10-08T01:03:49;15.40;9.60
1351;DHT22;669;50.206;9.998;2023-10-08T01:06:18;15.40;9.70
1351;DHT22;669;50.206;9.998;2023-10-08T01:08:46;15.40;9.70
1351;DHT22;669;50.206;9.998;2023-10-08T01:11:20;15.40;9.80
1351;DHT22;669;50.206;9.998;2023-10-08T01:13:58;15.40;9.70
1351;DHT22;669;50.206;9.998;2023-10-08T01:16:27;15.40;9.30
1351;DHT22;669;50.206;9.998;2023-10-08T01:19:01;15.40;9.30
1351;DHT22;669;50.206;9.998;2023-10-08T01:21:29;15.40;9.40
1351;DHT22;669;50.206;9.998;2023-10-08T01:24:03;15.40;9.60
1351;DHT22;669;50.206;9.998;2023-10-08T01:26:33;15.40;9.80
1351;DHT22;669;50.206;9.998;2023-10-08T01:29:08;15.40;10.00
1351;DHT22;669;50.206;9.998;2023-10-08T01:31:39;15.30;10.20
1351;DHT22;669;50.206;9.998;2023-10-08T01:34:07;15.30;10.50
1351;DHT22;669;50.206;9.998;2023-10-08T01:36:35;15.20;10.90
1351;DHT22;669;50.206;9.998;2023-10-08T01:39:04;15.20;11.30
1351;DHT22;669;50.206;9.998;2023-10-08T01:41:33;15.10;11.20
1351;DHT22;669;50.206;9.998;2023-10-08T01:44:07;15.10;11.50
1351;DHT22;669;50.206;9.998;2023-10-08T01:46:35;15.10;11.10
1351;DHT22;669;50.206;9.998;2023-10-08T01:49:05;15.00;11.60
1351;DHT22;669;50.206;9.998;2023-10-08T01:51:40;15.00;11.70
1351;DHT22;669;50.206;9.998;2023-10-08T01:54:15;15.00;12.30
1351;DHT22;669;50.206;9.998;2023-10-08T01:56:45;15.00;12.30
1351;DHT22;669;50.206;9.998;2023-10-08T01:59:14;14.90;12.40
1351;DHT22;669;50.206;9.998;2023-10-08T02:01:43;14.90;12.60
1351;DHT22;669;50.206;9.998;2023-10-08T02:04:12;14.90;12.90
1351;DHT22;669;50.206;9.998;2023-10-08T02:06:43;14.80;12.90
1351;DHT22;669;50.206;9.998;2023-10-08T02:09:12;14.80;13.20
1351;DHT22;669;50.206;9.998;2023-10-08T02:11:45;14.70;13.50
1351;DHT22;669;50.206;9.998;2023-10-08T02:14:16;14.70;13.60
1351;DHT22;669;50.206;9.998;2023-10-08T02:16:45;14.70;13.60
1351;DHT22;669;50.206;9.998;2023-10-08T02:19:13;14.70;13.70
1351;DHT22;669;50.206;9.998;2023-10-08T02:21:45;14.60;13.80
1351;DHT22;669;50.206;9.998;2023-10-08T02:24:13;14.60;14.00
1351;DHT22;669;50.206;9.998;2023-10-08T02:26:41;14.70;14.20
1351;DHT22;669;50.206;9.998;2023-10-08T02:29:11;14.70;14.30
1351;DHT22;669;50.206;9.998;2023-10-08T02:31:40;14.70;14.20
1351;DHT22;669;50.206;9.998;2023-10-08T02:34:09;14.70;14.20
1351;DHT22;669;50.206;9.998;2023-10-08T02:36:39;14.70;14.20
1351;DHT22;669;50.206;9.998;2023-10-08T02:39:10;14.70;14.00
1351;DHT22;669;50.206;9.998;2023-10-08T02:41:42;14.70;14.20
1351;DHT22;669;50.206;9.998;2023-10-08T02:44:14;14.70;14.20
1351;DHT22;669;50.206;9.998;2023-10-08T02:46:42;14.70;14.20
1351;DHT22;669;50.206;9.998;2023-10-08T02:49:11;14.60;14.10
1351;DHT22;669;50.206;9.998;2023-10-08T02:51:40;14.60;14.20
1351;DHT22;669;50.206;9.998;2023-10-08T02:54:09;14.60;14.30
1351;DHT22;669;50.206;9.998;2023-10-08T02:56:44;14.60;14.30
1351;DHT22;669;50.206;9.998;2023-10-08T02:59:14;14.60;14.30
1351;DHT22;669;50.206;9.998;2023-10-08T03:01:42;14.60;14.50
1351;DHT22;669;50.206;9.998;2023-10-08T03:04:10;14.60;14.20
1351;DHT22;669;50.206;9.998;2023-10-08T03:06:46;14.60;14.30
1351;DHT22;669;50.206;9.998;2023-10-08T03:09:17;14.60;14.40
1351;DHT22;669;50.206;9.998;2023-10-08T03:11:50;14.60;14.50
1351;DHT22;669;50.206;9.998;2023-10-08T03:14:20;14.60;14.30
1351;DHT22;669;50.206;9.998;2023-10-08T03:16:50;14.70;14.30
1351;DHT22;669;50.206;9.998;2023-10-08T03:19:21;14.70;14.10
1351;DHT22;669;50.206;9.998;2023-10-08T03:21:50;14.70;13.90
1351;DHT22;669;50.206;9.998;2023-10-08T03:24:23;14.80;13.50
1351;DHT22;669;50.206;9.998;2023-10-08T03:27:05;14.80;13.10
1351;DHT22;669;50.206;9.998;2023-10-08T03:29:43;14.80;12.80
1351;DHT22;669;50.206;9.998;2023-10-08T03:32:13;14.90;12.40
1351;DHT22;669;50.206;9.998;2023-10-08T03:34:46;14.90;12.20
1351;DHT22;669;50.206;9.998;2023-10-08T03:37:18;14.90;12.20
1351;DHT22;669;50.206;9.998;2023-10-08T03:39:56;14.90;11.80
1351;DHT22;669;50.206;9.998;2023-10-08T03:42:47;15.00;11.60
1351;DHT22;669;50.206;9.998;2023-10-08T03:45:17;14.90;11.30
1351;DHT22;669;50.206;9.998;2023-10-08T03:47:59;14.90;11.20
1351;DHT22;669;50.206;9.998;2023-10-08T03:50:33;15.00;11.40
1351;DHT22;669;50.206;9.998;2023-10-08T03:53:08;15.00;11.60
1351;DHT22;669;50.206;9.998;2023-10-08T03:55:38;15.00;11.80
1351;DHT22;669;50.206;9.998;2023-10-08T03:58:08;15.00;11.30
1351;DHT22;669;50.206;9.998;2023-10-08T04:00:45;15.00;11.50
1351;DHT22;669;50.206;9.998;2023-10-08T04:03:13;14.90;11.50
1351;DHT22;669;50.206;9.998;2023-10-08T04:05:50;14.90;11.70
1351;DHT22;669;50.206;9.998;2023-10-08T04:08:33;14.90;11.80
1351;DHT22;669;50.206;9.998;2023-10-08T04:11:15;14.90;11.80
1351;DHT22;669;50.206;9.998;2023-10-08T04:13:57;14.90;12.00
1351;DHT22;669;50.206;9.998;2023-10-08T04:16:32;14.90;11.80
1351;DHT22;669;50.206;9.998;2023-10-08T04:19:03;14.90;11.80
1351;DHT22;669;50.206;9.998;2023-10-08T04:21:32;14.90;12.00
1351;DHT22;669;50.206;9.998;2023-10-08T04:24:01;14.90;12.10
1351;DHT22;669;50.206;9.998;2023-10-08T04:26:35;14.80;12.70
1351;DHT22;669;50.206;9.998;2023-10-08T04:29:05;14.80;13.10
1351;DHT22;669;50.206;9.998;2023-10-08T04:31:35;14.80;13.70
1351;DHT22;669;50.206;9.998;2023-10-08T04:34:10;14.70;14.40
1351;DHT22;669;50.206;9.998;2023-10-08T04:36:42;14.60;14.50
1351;DHT22;669;50.206;9.998;2023-10-08T04:39:14;14.60;14.50
1351;DHT22;669;50.206;9.998;2023-10-08T04:41:42;14.60;14.30
1351;DHT22;669;50.206;9.998;2023-10-08T04:44:11;14.60;14.20
1351;DHT22;669;50.206;9.998;2023-10-08T04:46:43;14.70;14.00
1351;DHT22;669;50.206;9.998;2023-10-08T04:49:19;14.70;13.60
1351;DHT22;669;50.206;9.998;2023-10-08T04:51:55;14.80;12.90
1351;DHT22;669;50.206;9.998;2023-10-08T04:54:25;14.90;12.50
1351;DHT22;669;50.206;9.998;2023-10-08T04:56:58;14.90;12.00
1351;DHT22;669;50.206;9.998;2023-10-08T04:59:27;15.00;11.50
1351;DHT22;669;50.206;9.998;2023-10-08T05:02:03;14.90;11.40
1351;DHT22;669;50.206;9.998;2023-10-08T05:04:47;15.00;11.60
1351;DHT22;669;50.206;9.998;2023-10-08T05:07:44;14.90;11.80
1351;DHT22;669;50.206;9.998;2023-10-08T05:10:55;14.90;12.20
1351;DHT22;669;50.206;9.998;2023-10-08T05:13:41;14.90;12.40
1351;DHT22;669;50.206;9.998;2023-10-08T05:16:23;14.80;12.80
1351;DHT22;669;50.206;9.998;2023-10-08T05:19:11;14.80;13.20
1351;DHT22;669;50.206;9.998;2023-10-08T05:22:04;14.80;13.40
1351;DHT22;669;50.206;9.998;2023-10-08T05:24:45;14.70;13.50
1351;DHT22;669;50.206;9.998;2023-10-08T05:27:34;14.70;13.70
1351;DHT22;669;50.206;9.998;2023-10-08T05:30:06;14.60;14.00
1351;DHT22;669;50.206;9.998;2023-10-08T05:32:43;14.60;14.60
1351;DHT22;669;50.206;9.998;2023-10-08T05:35:36;14.60;15.40
1351;DHT22;669;50.206;9.998;2023-10-08T05:38:30;14.50;15.80
1351;DHT22;669;50.206;9.998;2023-10-08T05:41:16;14.40;16.20
1351;DHT22;669;50.206;9.998;2023-10-08T05:44:06;14.40;17.20
1351;DHT22;669;50.206;9.998;2023-10-08T05:46:51;14.40;18.50
1351;DHT22;669;50.206;9.998;2023-10-08T05:49:34;14.40;18.00
1351;DHT22;669;50.206;9.998;2023-10-08T05:52:21;14.40;17.40
1351;DHT22;669;50.206;9.998;2023-10-08T05:55:17;14.40;17.30
1351;DHT22;669;50.206;9.998;2023-10-08T05:57:53;14.40;17.00
1351;DHT22;669;50.206;9.998;2023-10-08T06:00:40;14.50;16.00
1351;DHT22;669;50.206;9.998;2023-10-08T06:03:31;14.50;15.60
1351;DHT22;669;50.206;9.998;2023-10-08T06:06:04;14.60;15.10
1351;DHT22;669;50.206;9.998;2023-10-08T06:09:01;14.60;15.00
1351;DHT22;669;50.206;9.998;2023-10-08T06:11:48;14.60;14.80
1351;DHT22;669;50.206;9.998;2023-10-08T06:14:35;14.70;15.60
1351;DHT22;669;50.206;9.998;2023-10-08T06:17:35;14.60;16.30
1351;DHT22;669;50.206;9.998;2023-10-08T06:20:24;14.60;15.70
1351;DHT22;669;50.206;9.998;2023-10-08T06:22:54;14.60;16.10
1351;DHT22;669;50.206;9.998;2023-10-08T06:25:29;14.70;15.30
1351;DHT22;669;50.206;9.998;2023-10-08T06:27:57;14.70;15.40
1351;DHT22;669;50.206;9.998;2023-10-08T06:30:25;14.80;13.90
1351;DHT22;669;50.206;9.998;2023-10-08T06:32:57;14.90;13.00
1351;DHT22;669;50.206;9.998;2023-10-08T06:35:25;15.00;11.10
1351;DHT22;669;50.206;9.998;2023-10-08T06:37:54;15.20;11.80
1351;DHT22;669;50.206;9.998;2023-10-08T06:40:26;15.10;12.40
1351;DHT22;669;50.206;9.998;2023-10-08T06:43:10;15.10;13.30
1351;DHT22;669;50.206;9.998;2023-10-08T06:45:40;15.10;13.40
1351;DHT22;669;50.206;9.998;2023-10-08T06:48:08;15.10;14.00
1351;DHT22;669;50.206;9.998;2023-10-08T06:50:36;15.00;13.40
1351;DHT22;669;50.206;9.998;2023-10-08T06:53:04;15.10;13.40
1351;DHT22;669;50.206;9.998;2023-10-08T06:55:34;15.10;14.30
1351;DHT22;669;50.206;9.998;2023-10-08T06:58:03;15.10;13.80
1351;DHT22;669;50.206;9.998;2023-10-08T07:00:36;15.10;14.30
1351;DHT22;669;50.206;9.998;2023-10-08T07:03:13;15.10;13.20
1351;DHT22;669;50.206;9.998;2023-10-08T07:05:44;15.10;12.80
1351;DHT22;669;50.206;9.998;2023-10-08T07:08:22;15.20;11.50
1351;DHT22;669;50.206;9.998;2023-10-08T07:10:51;15.20;11.90
1351;DHT22;669;50.206;9.998;2023-10-08T07:13:20;15.30;12.00
1351;DHT22;669;50.206;9.998;2023-10-08T07:15:51;15.40;11.30
1351;DHT22;669;50.206;9.998;2023-10-08T07:18:19;15.50;11.40
1351;DHT22;669;50.206;9.998;2023-10-08T07:20:53;15.60;11.50
1351;DHT22;669;50.206;9.998;2023-10-08T07:23:23;15.80;12.30
1351;DHT22;669;50.206;9.998;2023-10-08T07:25:54;16.00;9.70
1351;DHT22;669;50.206;9.998;2023-10-08T07:28:27;16.30;8.20
1351;DHT22;669;50.206;9.998;2023-10-08T07:30:58;16.70;6.10
1351;DHT22;669;50.206;9.998;2023-10-08T07:33:26;16.90;4.90
1351;DHT22;669;50.206;9.998;2023-10-08T07:36:03;17.00;4.10
1351;DHT22;669;50.206;9.998;2023-10-08T07:38:40;17.10;4.20
1351;DHT22;669;50.206;9.998;2023-10-08T07:41:10;17.00;3.70
1351;DHT22;669;50.206;9.998;2023-10-08T07:43:39;17.00;4.10
1351;DHT22;669;50.206;9.998;2023-10-08T07:46:10;16.90;4.00
1351;DHT22;669;50.206;9.998;2023-10-08T07:48:38;16.90;4.00
1351;DHT22;669;50.206;9.998;2023-10-08T07:51:09;16.70;4.40
1351;DHT22;669;50.206;9.998;2023-10-08T07:53:37;16.70;4.60
1351;DHT22;669;50.206;9.998;2023-10-08T07:56:05;16.60;5.00
1351;DHT22;669;50.206;9.998;2023-10-08T07:58:38;16.60;5.20
1351;DHT22;669;50.206;9.998;2023-10-08T08:01:06;16.50;5.50
1351;DHT22;669;50.206;9.998;2023-10-08T08:03:37;16.40;7.10
1351;DHT22;669;50.206;9.998;2023-10-08T08:06:05;16.40;7.30
1351;DHT22;669;50.206;9.998;2023-10-08T08:08:34;16.40;7.30
1351;DHT22;669;50.206;9.998;2023-10-08T08:11:03;16.30;7.30
1351;DHT22;669;50.206;9.998;2023-10-08T08:13:39;16.30;6.90
1351;DHT22;669;50.206;9.998;2023-10-08T08:16:10;16.40;6.90
1351;DHT22;669;50.206;9.998;2023-10-08T08:18:46;16.40;7.30
1351;DHT22;669;50.206;9.998;2023-10-08T08:21:16;16.40;7.80
1351;DHT22;669;50.206;9.998;2023-10-08T08:23:47;16.40;7.60
1351;DHT22;669;50.206;9.998;2023-10-08T08:26:16;16.40;7.80
1351;DHT22;669;50.206;9.998;2023-10-08T08:28:55;16.50;7.80
1351;DHT22;669;50.206;9.998;2023-10-08T08:31:24;16.50;8.20
1351;DHT22;669;50.206;9.998;2023-10-08T08:33:54;16.60;7.60
1351;DHT22;669;50.206;9.998;2023-10-08T08:36:27;16.60;6.80
1351;DHT22;669;50.206;9.998;2023-10-08T08:38:56;16.60;6.60
1351;DHT22;669;50.206;9.998;2023-10-08T08:41:24;16.70;6.60
1351;DHT22;669;50.206;9.998;2023-10-08T08:43:53;16.70;6.90
1351;DHT22;669;50.206;9.998;2023-10-08T08:46:28;16.70;7.20
1351;DHT22;669;50.206;9.998;2023-10-08T08:49:01;16.80;7.30
1351;DHT22;669;50.206;9.998;2023-10-08T08:51:31;16.80;7.20
1351;DHT22;669;50.206;9.998;2023-10-08T08:53:59;16.90;7.10
1351;DHT22;669;50.206;9.998;2023-10-08T08:56:33;16.90;6.30
1351;DHT22;669;50.206;9.998;2023-10-08T08:59:01;17.00;5.20
1351;DHT22;669;50.206;9.998;2023-10-08T09:01:31;16.90;5.60
1351;DHT22;669;50.206;9.998;2023-10-08T09:04:01;16.90;5.90
1351;DHT22;669;50.206;9.998;2023-10-08T09:06:33;16.90;6.30
1351;DHT22;669;50.206;9.998;2023-10-08T09:09:02;16.90;6.20
1351;DHT22;669;50.206;9.998;2023-10-08T09:11:49;16.90;5.80
1351;DHT22;669;50.206;9.998;2023-10-08T09:14:20;16.90;6.20
1351;DHT22;669;50.206;9.998;2023-10-08T09:16:49;17.00;5.50
1351;DHT22;669;50.206;9.998;2023-10-08T09:19:19;17.00;5.60
1351;DHT22;669;50.206;9.998;2023-10-08T09:22:00;17.10;5.80
1351;DHT22;669;50.206;9.998;2023-10-08T09:24:30;17.10;6.30
1351;DHT22;669;50.206;9.998;2023-10-08T09:27:00;17.20;5.80
1351;DHT22;669;50.206;9.998;2023-10-08T09:29:29;17.30;5.40
1351;DHT22;669;50.206;9.998;2023-10-08T09:31:58;17.40;5.80
1351;DHT22;669;50.206;9.998;2023-10-08T09:34:29;17.60;5.40
1351;DHT22;669;50.206;9.998;2023-10-08T09:36:57;17.70;4.60
1351;DHT22;669;50.206;9.998;2023-10-08T09:39:26;17.70;4.60
1351;DHT22;669;50.206;9.998;2023-10-08T09:41:57;17.70;4.60
1351;DHT22;669;50.206;9.998;2023-10-08T09:44:25;17.60;4.50
1351;DHT22;669;50.206;9.998;2023-10-08T09:47:02;17.60;4.50
1351;DHT22;669;50.206;9.998;2023-10-08T09:49:33;17.70;4.60
1351;DHT22;669;50.206;9.998;2023-10-08T09:52:06;17.60;4.50
1351;DHT22;669;50.206;9.998;2023-10-08T09:54:40;17.60;4.50
1351;DHT22;669;50.206;9.998;2023-10-08T09:57:11;17.50;5.20
1351;DHT22;669;50.206;9.998;2023-10-08T09:59:40;17.50;5.10
1351;DHT22;669;50.206;9.998;2023-10-08T10:02:09;17.50;5.00
1351;DHT22;669;50.206;9.998;2023-10-08T10:04:43;17.40;5.40
1351;DHT22;669;50.206;9.998;2023-10-08T10:07:13;17.40;6.00
1351;DHT22;669;50.206;9.998;2023-10-08T10:09:44;17.30;6.70
1351;DHT22;669;50.206;9.998;2023-10-08T10:12:18;17.30;6.30
1351;DHT22;669;50.206;9.998;2023-10-08T10:14:53;17.20;6.40
1351;DHT22;669;50.206;9.998;2023-10-08T10:17:24;17.30;6.60
1351;DHT22;669;50.206;9.998;2023-10-08T10:20:12;17.20;7.20
1351;DHT22;669;50.206;9.998;2023-10-08T10:22:42;17.30;6.10
1351;DHT22;669;50.206;9.998;2023-10-08T10:25:12;17.20;5.90
1351;DHT22;669;50.206;9.998;2023-10-08T10:30:48;17.20;6.60
1351;DHT22;669;50.206;9.998;2023-10-08T10:33:16;17.10;6.20
1351;DHT22;669;50.206;9.998;2023-10-08T10:35:51;17.10;7.00
1351;DHT22;669;50.206;9.998;2023-10-08T10:38:19;17.10;6.70
1351;DHT22;669;50.206;9.998;2023-10-08T10:40:49;17.10;7.30
1351;DHT22;669;50.206;9.998;2023-10-08T10:43:24;17.10;8.30
1351;DHT22;669;50.206;9.998;2023-10-08T10:45:59;17.10;8.10
1351;DHT22;669;50.206;9.998;2023-10-08T10:48:46;17.10;7.70
1351;DHT22;669;50.206;9.998;2023-10-08T10:51:26;17.10;7.40
1351;DHT22;669;50.206;9.998;2023-10-08T10:53:53;17.10;7.30
1351;DHT22;669;50.206;9.998;2023-10-08T10:56:27;17.10;7.50
1351;DHT22;669;50.206;9.998;2023-10-08T10:58:59;17.20;6.70
1351;DHT22;669;50.206;9.998;2023-10-08T11:01:28;17.20;7.20
1351;DHT22;669;50.206;9.998;2023-10-08T11:03:57;17.20;7.00
1351;DHT22;669;50.206;9.998;2023-10-08T11:06:27;17.30;6.70
1351;DHT22;669;50.206;9.998;2023-10-08T11:08:55;17.40;6.70
1351;DHT22;669;50.206;9.998;2023-10-08T11:11:26;17.50;6.50
1351;DHT22;669;50.206;9.998;2023-10-08T11:13:56;17.50;5.70
1351;DHT22;669;50.206;9.998;2023-10-08T11:16:27;17.40;5.80
1351;DHT22;669;50.206;9.998;2023-10-08T11:18:58;17.40;6.10
1351;DHT22;669;50.206;9.998;2023-10-08T11:21:48;17.40;5.60
1351;DHT22;669;50.206;9.998;2023-10-08T11:24:28;17.30;6.50
1351;DHT22;669;50.206;9.998;2023-10-08T11:26:56;17.30;6.40
1351;DHT22;669;50.206;9.998;2023-10-08T11:29:43;17.20;6.50
1351;DHT22;669;50.206;9.998;2023-10-08T11:32:11;17.20;6.40
1351;DHT22;669;50.206;9.998;2023-10-08T11:34:42;17.10;6.70
1351;DHT22;669;50.206;9.998;2023-10-08T11:37:12;17.10;6.80
1351;DHT22;669;50.206;9.998;2023-10-08T11:39:47;17.00;6.90
1351;DHT22;669;50.206;9.998;2023-10-08T11:42:16;16.70;6.80
1351;DHT22;669;50.206;9.998;2023-10-08T11:45:01;16.60;7.10
1351;DHT22;669;50.206;9.998;2023-10-08T11:47:45;16.40;8.20
1351;DHT22;669;50.206;9.998;2023-10-08T11:50:16;16.40;8.90
1351;DHT22;669;50.206;9.998;2023-10-08T11:52:47;16.20;8.30
1351;DHT22;669;50.206;9.998;2023-10-08T11:55:16;16.10;7.90
1351;DHT22;669;50.206;9.998;2023-10-08T11:57:46;16.00;7.60
1351;DHT22;669;50.206;9.998;2023-10-08T12:00:16;15.80;7.70
1351;DHT22;669;50.206;9.998;2023-10-08T12:02:58;15.60;9.30
1351;DHT22;669;50.206;9.998;2023-10-08T12:05:29;15.60;9.30
1351;DHT22;669;50.206;9.998;2023-10-08T12:08:00;15.50;9.40
1351;DHT22;669;50.206;9.998;2023-10-08T12:10:28;15.50;8.40
1351;DHT22;669;50.206;9.998;2023-10-08T12:13:01;15.40;8.50
1351;DHT22;669;50.206;9.998;2023-10-08T12:15:32;15.40;8.00
1351;DHT22;669;50.206;9.998;2023-10-08T12:18:05;15.30;7.60
1351;DHT22;669;50.206;9.998;2023-10-08T12:20:40;15.20;8.60
1351;DHT22;669;50.206;9.998;2023-10-08T12:23:12;15.20;8.50
1351;DHT22;669;50.206;9.998;2023-10-08T12:25:49;15.20;8.10
1351;DHT22;669;50.206;9.998;2023-10-08T12:28:19;15.10;8.80
1351;DHT22;669;50.206;9.998;2023-10-08T12:30:48;15.10;8.90
1351;DHT22;669;50.206;9.998;2023-10-08T12:33:19;15.10;9.00
1351;DHT22;669;50.206;9.998;2023-10-08T12:35:47;15.10;9.90
1351;DHT22;669;50.206;9.998;2023-10-08T12:38:17;15.10;8.90
1351;DHT22;669;50.206;9.998;2023-10-08T12:40:47;15.10;9.40
1351;DHT22;669;50.206;9.998;2023-10-08T12:43:20;15.10;9.80
1351;DHT22;669;50.206;9.998;2023-10-08T12:45:49;15.00;9.00
1351;DHT22;669;50.206;9.998;2023-10-08T12:48:20;14.90;9.90
1351;DHT22;669;50.206;9.998;2023-10-08T12:50:48;15.00;9.80
1351;DHT22;669;50.206;9.998;2023-10-08T12:53:26;15.00;9.90
1351;DHT22;669;50.206;9.998;2023-10-08T12:56:01;15.00;9.50
1351;DHT22;669;50.206;9.998;2023-10-08T12:58:33;15.00;9.70
1351;DHT22;669;50.206;9.998;2023-10-08T13:01:08;15.10;8.80
1351;DHT22;669;50.206;9.998;2023-10-08T13:03:37;15.10;9.40
1351;DHT22;669;50.206;9.998;2023-10-08T13:06:09;15.10;9.10
1351;DHT22;669;50.206;9.998;2023-10-08T13:08:43;15.20;10.00
1351;DHT22;669;50.206;9.998;2023-10-08T13:11:11;15.20;8.70
1351;DHT22;669;50.206;9.998;2023-10-08T13:13:39;15.10;9.50
1351;DHT22;669;50.206;9.998;2023-10-08T13:16:08;15.20;9.20
1351;DHT22;669;50.206;9.998;2023-10-08T13:18:36;15.20;8.50
1351;DHT22;669;50.206;9.998;2023-10-08T13:21:05;15.10;8.30
1351;DHT22;669;50.206;9.998;2023-10-08T13:23:33;15.10;8.60
1351;DHT22;669;50.206;9.998;2023-10-08T13:26:03;15.10;8.30
1351;DHT22;669;50.206;9.998;2023-10-08T13:28:34;15.00;8.70
1351;DHT22;669;50.206;9.998;2023-10-08T13:31:03;15.00;8.80
1351;DHT22;669;50.206;9.998;2023-10-08T13:33:37;15.00;8.70
1351;DHT22;669;50.206;9.998;2023-10-08T13:36:07;14.90;9.10
1351;DHT22;669;50.206;9.998;2023-10-08T13:38:45;15.00;9.40
1351;DHT22;669;50.206;9.998;2023-10-08T13:41:16;14.90;8.80
1351;DHT22;669;50.206;9.998;2023-10-08T13:43:45;14.90;8.60
1351;DHT22;669;50.206;9.998;2023-10-08T13:46:15;14.90;9.30
1351;DHT22;669;50.206;9.998;2023-10-08T13:48:46;14.90;9.20
1351;DHT22;669;50.206;9.998;2023-10-08T13:51:16;14.80;10.30
1351;DHT22;669;50.206;9.998;2023-10-08T13:53:52;14.80;9.60
1351;DHT22;669;50.206;9.998;2023-10-08T13:56:28;14.90;10.70
1351;DHT22;669;50.206;9.998;2023-10-08T13:58:58;14.90;9.70
1351;DHT22;669;50.206;9.998;2023-10-08T14:01:33;14.90;9.70
1351;DHT22;669;50.206;9.998;2023-10-08T14:04:01;14.90;9.80
1351;DHT22;669;50.206;9.998;2023-10-08T14:06:33;15.00;9.90
1351;DHT22;669;50.206;9.998;2023-10-08T14:09:02;15.00;9.10
1351;DHT22;669;50.206;9.998;2023-10-08T14:11:35;15.00;9.40
1351;DHT22;669;50.206;9.998;2023-10-08T14:14:04;15.10;9.50
1351;DHT22;669;50.206;9.998;2023-10-08T14:16:39;15.10;9.50
1351;DHT22;669;50.206;9.998;2023-10-08T14:19:09;15.10;9.40
1351;DHT22;669;50.206;9.998;2023-10-08T14:21:39;15.10;9.40
1351;DHT22;669;50.206;9.998;2023-10-08T14:24:16;15.00;8.90
1351;DHT22;669;50.206;9.998;2023-10-08T14:26:46;15.00;9.50
1351;DHT22;669;50.206;9.998;2023-10-08T14:29:19;15.00;9.30
1351;DHT22;669;50.206;9.998;2023-10-08T14:31:52;14.90;9.50
1351;DHT22;669;50.206;9.998;2023-10-08T14:34:24;14.90;9.90
1351;DHT22;669;50.206;9.998;2023-10-08T14:37:17;14.90;9.30
1351;DHT22;669;50.206;9.998;2023-10-08T14:40:02;14.90;9.70
1351;DHT22;669;50.206;9.998;2023-10-08T14:42:49;14.80;9.90
1351;DHT22;669;50.206;9.998;2023-10-08T14:45:27;14.80;9.90
1351;DHT22;669;50.206;9.998;2023-10-08T14:47:58;14.80;10.00
1351;DHT22;669;50.206;9.998;2023-10-08T14:50:28;14.70;9.70
1351;DHT22;669;50.206;9.998;2023-10-08T14:53:00;14.80;11.00
1351;DHT22;669;50.206;9.998;2023-10-08T14:55:31;14.80;9.70
1351;DHT22;669;50.206;9.998;2023-10-08T14:58:04;14.80;9.80
1351;DHT22;669;50.206;9.998;2023-10-08T15:00:35;14.80;11.00
1351;DHT22;669;50.206;9.998;2023-10-08T15:03:04;14.80;11.00
1351;DHT22;669;50.206;9.998;2023-10-08T15:05:32;14.80;10.40
1351;DHT22;669;50.206;9.998;2023-10-08T15:08:04;14.90;10.20
1351;DHT22;669;50.206;9.998;2023-10-08T15:10:37;14.90;11.00
1351;DHT22;669;50.206;9.998;2023-10-08T15:13:06;15.00;10.40
1351;DHT22;669;50.206;9.998;2023-10-08T15:15:34;15.00;10.00
1351;DHT22;669;50.206;9.998;2023-10-08T15:18:03;15.00;9.50
1351;DHT22;669;50.206;9.998;2023-10-08T15:20:33;15.00;9.60
1351;DHT22;669;50.206;9.998;2023-10-08T15:23:02;15.00;9.70
1351;DHT22;669;50.206;9.998;2023-10-08T15:25:31;14.90;7.90
1351;DHT22;669;50.206;9.998;2023-10-08T15:27:59;14.80;9.10
1351;DHT22;669;50.206;9.998;2023-10-08T15:30:29;14.80;8.30
1351;DHT22;669;50.206;9.998;2023-10-08T15:32:59;14.80;9.30
1351;DHT22;669;50.206;9.998;2023-10-08T15:35:27;14.80;8.20
1351;DHT22;669;50.206;9.998;2023-10-08T15:37:55;14.80;9.40
1351;DHT22;669;50.206;9.998;2023-10-08T15:40:23;14.80;9.90
1351;DHT22;669;50.206;9.998;2023-10-08T15:42:52;14.90;9.60
1351;DHT22;669;50.206;9.998;2023-10-08T15:45:22;14.90;9.10
1351;DHT22;669;50.206;9.998;2023-10-08T15:47:52;14.90;9.60
1351;DHT22;669;50.206;9.998;2023-10-08T15:50:21;14.90;9.50
1351;DHT22;669;50.206;9.998;2023-10-08T15:52:52;14.90;9.30
1351;DHT22;669;50.206;9.998;2023-10-08T15:55:23;14.90;8.60
1351;DHT22;669;50.206;9.998;2023-10-08T15:57:52;14.90;8.50
1351;DHT22;669;50.206;9.998;2023-10-08T16:00:21;14.90;8.60
1351;DHT22;669;50.206;9.998;2023-10-08T16:02:49;14.90;8.90
1351;DHT22;669;50.206;9.998;2023-10-08T16:05:19;14.80;8.40
1351;DHT22;669;50.206;9.998;2023-10-08T16:07:47;14.90;8.60
1351;DHT22;669;50.206;9.998;2023-10-08T16:10:15;14.90;8.60
1351;DHT22;669;50.206;9.998;2023-10-08T16:12:43;14.80;9.10
1351;DHT22;669;50.206;9.998;2023-10-08T16:15:11;14.80;8.70
1351;DHT22;669;50.206;9.998;2023-10-08T16:17:39;14.80;8.90
1351;DHT22;669;50.206;9.998;2023-10-08T16:20:11;14.80;9.00
1351;DHT22;669;50.206;9.998;2023-10-08T16:22:44;14.80;9.10
1351;DHT22;669;50.206;9.998;2023-10-08T16:25:14;14.80;8.90
1351;DHT22;669;50.206;9.998;2023-10-08T16:27:44;14.70;9.40
1351;DHT22;669;50.206;9.998;2023-10-08T16:30:17;14.70;9.50
1351;DHT22;669;50.206;9.998;2023-10-08T16:32:46;14.70;10.20
1351;DHT22;669;50.206;9.998;2023-10-08T16:35:15;14.70;10.90
1351;DHT22;669;50.206;9.998;2023-10-08T16:37:45;14.70;10.70
1351;DHT22;669;50.206;9.998;2023-10-08T16:40:12;14.70;10.90
1351;DHT22;669;50.206;9.998;2023-10-08T16:42:40;14.70;10.90
1351;DHT22;669;50.206;9.998;2023-10-08T16:45:09;14.60;10.80
1351;DHT22;669;50.206;9.998;2023-10-08T16:47:37;14.50;11.50
1351;DHT22;669;50.206;9.998;2023-10-08T16:50:07;14.40;12.00
1351;DHT22;669;50.206;9.998;2023-10-08T16:52:35;14.40;12.60
1351;DHT22;669;50.206;9.998;2023-10-08T16:55:04;14.40;13.40
1351;DHT22;669;50.206;9.998;2023-10-08T16:57:33;14.40;13.10
1351;DHT22;669;50.206;9.998;2023-10-08T17:00:01;14.30;13.00
1351;DHT22;669;50.206;9.998;2023-10-08T17:02:38;14.30;13.40
1351;DHT22;669;50.206;9.998;2023-10-08T17:05:08;14.30;13.50